createdAt,value
2023-01-09T00:01:15.966Z,93.82
2023-01-09T00:03:48.603Z,85.38
2023-01-09T00:06:21.177Z,89.53
2023-01-09T00:08:53.923Z,72.70
2023-01-09T00:11:26.805Z,66.47
2023-01-09T00:13:59.445Z,61.08
2023-01-09T00:16:32.095Z,58.63
2023-01-09T00:19:04.593Z,48.00
2023-01-09T00:21:37.831Z,47.90
2023-01-09T00:24:10.383Z,42.50
2023-01-09T00:26:42.903Z,41.00
2023-01-09T00:29:17.318Z,35.33
2023-01-09T00:31:49.853Z,41.33
2023-01-09T00:34:22.347Z,37.67
2023-01-09T00:36:56.482Z,34.72
2023-01-09T00:39:28.894Z,36.55
2023-01-09T00:42:01.319Z,35.78
2023-01-09T00:44:42.756Z,30.58
2023-01-09T00:47:21.956Z,23.60
2023-01-09T00:49:55.595Z,27.02
2023-01-09T00:52:30.528Z,25.30
2023-01-09T00:57:36.405Z,21.15
2023-01-09T01:00:10.226Z,22.35
2023-01-09T01:02:42.881Z,20.27
2023-01-09T01:05:30.908Z,21.45
2023-01-09T01:08:03.768Z,25.27
2023-01-09T01:10:36.450Z,27.63
2023-01-09T01:13:09.350Z,25.00
2023-01-09T01:15:44.072Z,28.80
2023-01-09T01:18:16.673Z,28.13
2023-01-09T01:20:49.162Z,29.02
2023-01-09T01:23:21.590Z,29.15
2023-01-09T01:25:53.981Z,27.27
2023-01-09T01:28:26.381Z,29.98
2023-01-09T01:30:58.785Z,27.88
2023-01-09T01:33:31.594Z,28.67
2023-01-09T01:36:06.156Z,27.88
2023-01-09T01:38:38.563Z,20.15
2023-01-09T01:41:11.128Z,26.00
2023-01-09T01:43:55.338Z,27.85
2023-01-09T01:46:29.366Z,27.38
2023-01-09T01:49:03.475Z,28.75
2023-01-09T01:51:41.276Z,25.25
2023-01-09T01:54:20.112Z,24.73
2023-01-09T01:56:58.602Z,23.50
2023-01-09T01:59:44.748Z,22.08
2023-01-09T02:02:22.646Z,19.70
2023-01-09T02:04:57.371Z,23.52
2023-01-09T02:07:30.307Z,19.20
2023-01-09T02:10:03.128Z,18.90
2023-01-09T02:12:35.704Z,19.73
2023-01-09T02:15:12.176Z,23.45
2023-01-09T02:18:05.426Z,18.17
2023-01-09T02:20:44.118Z,19.33
2023-01-09T02:23:33.650Z,19.48
2023-01-09T02:26:33.150Z,17.52
2023-01-09T02:29:26.870Z,19.35
2023-01-09T02:32:18.232Z,15.35
2023-01-09T02:35:12.977Z,20.58
2023-01-09T02:38:03.287Z,14.35
2023-01-09T02:40:42.283Z,15.60
2023-01-09T02:43:16.152Z,13.55
2023-01-09T02:45:48.805Z,16.35
2023-01-09T02:48:21.388Z,15.98
2023-01-09T02:51:03.467Z,17.70
2023-01-09T02:53:52.085Z,16.95
2023-01-09T02:56:40.645Z,17.10
2023-01-09T02:59:25.630Z,16.60
2023-01-09T03:02:29.561Z,16.58
2023-01-09T03:05:03.653Z,17.45
2023-01-09T03:07:48.522Z,16.48
2023-01-09T03:10:41.488Z,18.73
2023-01-09T03:13:17.538Z,17.63
2023-01-09T03:15:53.825Z,20.17
2023-01-09T03:18:29.058Z,20.48
2023-01-09T03:24:06.978Z,17.33
2023-01-09T03:26:39.565Z,20.17
2023-01-09T03:29:12.280Z,20.45
2023-01-09T03:31:44.866Z,19.58
2023-01-09T03:34:17.348Z,18.10
2023-01-09T03:36:49.947Z,22.08
2023-01-09T03:39:22.361Z,20.67
2023-01-09T03:41:54.745Z,18.80
2023-01-09T03:44:27.100Z,16.25
2023-01-09T03:46:59.498Z,18.55
2023-01-09T03:49:31.954Z,16.10
2023-01-09T03:52:04.808Z,20.48
2023-01-09T03:54:37.388Z,15.13
2023-01-09T03:57:09.981Z,19.00
2023-01-09T03:59:42.579Z,18.02
2023-01-09T04:02:15.226Z,20.95
2023-01-09T04:04:47.839Z,15.48
2023-01-09T04:07:20.346Z,15.93
2023-01-09T04:09:52.961Z,16.05
2023-01-09T04:12:25.592Z,18.83
2023-01-09T04:14:58.067Z,18.58
2023-01-09T04:17:31.521Z,14.65
2023-01-09T04:20:04.964Z,14.73
2023-01-09T04:22:37.792Z,15.38
2023-01-09T04:25:11.140Z,16.40
2023-01-09T04:27:43.760Z,15.07
2023-01-09T04:30:16.373Z,15.55
2023-01-09T04:32:48.885Z,15.07
2023-01-09T04:35:21.574Z,18.23
2023-01-09T04:37:54.319Z,16.85
2023-01-09T04:40:27.140Z,15.90
2023-01-09T04:42:59.692Z,16.15
2023-01-09T04:45:32.285Z,18.70
2023-01-09T04:48:05.341Z,18.80
2023-01-09T04:50:37.727Z,16.83
2023-01-09T04:53:10.202Z,17.67
2023-01-09T04:55:43.192Z,17.70
2023-01-09T04:58:15.640Z,16.27
2023-01-09T05:00:48.006Z,18.52
2023-01-09T05:03:20.522Z,16.27
2023-01-09T05:05:52.971Z,13.35
2023-01-09T05:08:25.489Z,13.75
2023-01-09T05:10:58.004Z,14.93
2023-01-09T05:13:30.546Z,15.18
2023-01-09T05:16:03.559Z,15.38
2023-01-09T05:18:36.294Z,14.20
2023-01-09T05:21:10.372Z,15.10
2023-01-09T05:23:42.903Z,14.38
2023-01-09T05:26:15.444Z,15.07
2023-01-09T05:28:48.012Z,15.90
2023-01-09T05:31:21.277Z,16.98
2023-01-09T05:33:54.228Z,19.10
2023-01-09T05:36:26.616Z,14.40
2023-01-09T05:38:59.108Z,14.85
2023-01-09T05:41:31.782Z,16.25
2023-01-09T05:44:05.167Z,14.68
2023-01-09T05:46:37.822Z,15.50
2023-01-09T05:49:10.385Z,16.42
2023-01-09T05:51:42.983Z,15.73
2023-01-09T05:54:15.501Z,15.65
2023-01-09T05:56:48.065Z,15.40
2023-01-09T05:59:20.846Z,17.55
2023-01-09T06:01:54.536Z,30.38
2023-01-09T06:04:30.093Z,19.27
2023-01-09T06:07:02.796Z,17.15
2023-01-09T06:09:35.268Z,18.27
2023-01-09T06:12:08.469Z,22.00
2023-01-09T06:14:40.900Z,19.15
2023-01-09T06:17:13.253Z,19.60
2023-01-09T06:19:45.842Z,17.20
2023-01-09T06:22:18.329Z,16.20
2023-01-09T06:24:50.869Z,20.67
2023-01-09T06:27:23.298Z,17.95
2023-01-09T06:29:55.966Z,24.05
2023-01-09T06:32:28.571Z,31.52
2023-01-09T06:35:01.238Z,18.63
2023-01-09T06:37:34.644Z,16.55
2023-01-09T06:40:08.195Z,14.25
2023-01-09T06:42:44.835Z,18.33
2023-01-09T06:45:17.756Z,15.27
2023-01-09T06:47:50.279Z,19.52
2023-01-09T06:50:22.843Z,17.00
2023-01-09T06:52:55.467Z,15.27
2023-01-09T06:55:28.122Z,18.85
2023-01-09T06:58:00.630Z,19.30
2023-01-09T07:00:33.197Z,30.65
2023-01-09T07:03:06.515Z,24.02
2023-01-09T07:05:42.424Z,19.33
2023-01-09T07:08:15.229Z,18.08
2023-01-09T07:10:47.798Z,18.58
2023-01-09T07:13:20.625Z,17.77
2023-01-09T07:15:53.971Z,18.15
2023-01-09T07:18:26.525Z,18.40
2023-01-09T07:20:59.121Z,17.92
2023-01-09T07:23:31.644Z,17.13
2023-01-09T07:26:04.534Z,26.95
2023-01-09T07:28:37.061Z,25.02
2023-01-09T07:31:09.962Z,19.42
2023-01-09T07:33:42.540Z,18.55
2023-01-09T07:36:15.118Z,20.13
2023-01-09T07:38:47.510Z,16.20
2023-01-09T07:41:20.115Z,18.52
2023-01-09T07:43:52.748Z,18.45
2023-01-09T07:46:25.649Z,21.02
2023-01-09T07:48:58.173Z,17.48
2023-01-09T07:51:30.616Z,16.83
2023-01-09T07:54:03.079Z,21.23
2023-01-09T07:56:35.777Z,19.17
2023-01-09T07:59:08.457Z,16.80
2023-01-09T08:01:41.154Z,18.80
2023-01-09T08:04:14.012Z,17.65
2023-01-09T08:06:46.647Z,17.45
2023-01-09T08:09:19.264Z,19.25
2023-01-09T08:11:51.940Z,18.92
2023-01-09T08:14:24.592Z,15.07
2023-01-09T08:16:57.328Z,18.40
2023-01-09T08:19:29.905Z,20.08
2023-01-09T08:22:02.371Z,22.92
2023-01-09T08:24:36.766Z,26.00
2023-01-09T08:27:09.513Z,21.40
2023-01-09T08:29:42.289Z,31.10
2023-01-09T08:32:14.861Z,29.17
2023-01-09T08:34:47.460Z,27.63
2023-01-09T08:37:20.318Z,23.08
2023-01-09T08:39:53.585Z,26.02
2023-01-09T08:42:41.449Z,25.17
2023-01-09T08:45:29.146Z,25.45
2023-01-09T08:48:01.953Z,28.27
2023-01-09T08:50:34.636Z,26.77
2023-01-09T08:53:07.293Z,26.00
2023-01-09T08:55:40.159Z,27.80
2023-01-09T08:58:12.898Z,25.80
2023-01-09T09:00:45.329Z,26.52
2023-01-09T09:03:18.113Z,29.85
2023-01-09T09:05:50.972Z,23.40
2023-01-09T09:08:23.564Z,24.90
2023-01-09T09:10:57.543Z,23.42
2023-01-09T09:13:30.376Z,24.90
2023-01-09T09:16:03.108Z,29.02
2023-01-09T09:18:35.795Z,25.08
2023-01-09T09:21:10.729Z,24.98
2023-01-09T09:23:44.666Z,22.42
2023-01-09T09:26:17.225Z,22.30
2023-01-09T09:28:50.085Z,20.45
2023-01-09T09:31:22.707Z,23.77
2023-01-09T09:33:55.348Z,17.20
2023-01-09T09:36:30.183Z,18.70
2023-01-09T09:39:03.071Z,19.08
2023-01-09T09:42:20.050Z,17.17
2023-01-09T09:45:08.306Z,17.00
2023-01-09T09:47:48.112Z,18.02
2023-01-09T09:50:22.875Z,18.38
2023-01-09T09:53:18.339Z,16.70
2023-01-09T09:55:51.783Z,18.05
2023-01-09T09:58:40.339Z,17.52
2023-01-09T10:01:18.773Z,20.17
2023-01-09T10:03:55.872Z,23.35
2023-01-09T10:06:33.656Z,19.27
2023-01-09T10:09:16.448Z,22.70
2023-01-09T10:11:55.441Z,21.13
2023-01-09T10:14:28.183Z,24.95
2023-01-09T10:17:09.923Z,19.02
2023-01-09T10:20:06.988Z,20.15
2023-01-09T10:23:06.065Z,20.35
2023-01-09T10:25:49.796Z,19.70
2023-01-09T10:28:23.122Z,39.28
2023-01-09T10:31:18.778Z,20.08
2023-01-09T10:34:06.910Z,20.17
2023-01-09T10:37:06.118Z,19.98
2023-01-09T10:39:57.662Z,20.75
2023-01-09T10:42:34.717Z,22.58
2023-01-09T10:45:18.971Z,23.25
2023-01-09T10:47:58.428Z,23.23
2023-01-09T10:50:37.850Z,23.30
2023-01-09T10:53:23.651Z,23.30
2023-01-09T10:56:04.860Z,24.02
2023-01-09T10:58:37.644Z,24.05
2023-01-09T11:01:10.639Z,25.00
2023-01-09T11:03:43.240Z,23.10
2023-01-09T11:06:23.839Z,22.75
2023-01-09T11:09:00.578Z,21.52
2023-01-09T11:11:36.564Z,23.63
2023-01-09T11:14:28.071Z,22.38
2023-01-09T11:17:04.204Z,20.15
2023-01-09T11:19:36.865Z,19.13
2023-01-09T11:22:16.878Z,19.15
2023-01-09T11:25:02.691Z,21.02
2023-01-09T11:27:35.375Z,23.98
2023-01-09T11:30:10.616Z,16.40
2023-01-09T11:32:46.569Z,18.58
2023-01-09T11:35:24.546Z,30.42
2023-01-09T11:38:03.828Z,16.63
2023-01-09T11:40:46.339Z,16.45
2023-01-09T11:43:22.769Z,16.67
2023-01-09T11:46:01.451Z,14.65
